createdAt,value
2018-12-17T00:01:26.811Z,69.75
2018-12-17T00:03:58.512Z,70.13
2018-12-17T00:06:29.854Z,69.44
2018-12-17T00:08:59.582Z,70.09
2018-12-17T00:11:28.920Z,70.71
2018-12-17T00:13:58.291Z,69.59
2018-12-17T00:16:28.091Z,69.57
2018-12-17T00:18:57.588Z,70.52
2018-12-17T00:21:27.007Z,69.81
2018-12-17T00:23:56.926Z,70.47
2018-12-17T00:26:26.165Z,70.91
2018-12-17T00:28:55.809Z,71.95
2018-12-17T00:31:25.629Z,72.20
2018-12-17T00:33:55.063Z,71.60
2018-12-17T00:36:24.287Z,72.23
2018-12-17T00:38:53.765Z,73.40
2018-12-17T00:41:23.125Z,72.60
2018-12-17T00:43:52.780Z,72.37
2018-12-17T00:46:22.504Z,71.57
2018-12-17T00:48:51.963Z,72.16
2018-12-17T00:51:22.084Z,71.60
2018-12-17T00:53:51.796Z,71.25
2018-12-17T00:56:21.361Z,70.83
2018-12-17T00:58:51.827Z,70.87
2018-12-17T01:01:21.973Z,70.23
2018-12-17T01:03:51.295Z,71.64
2018-12-17T01:06:20.748Z,71.03
2018-12-17T01:08:50.463Z,70.32
2018-12-17T01:11:19.754Z,70.76
2018-12-17T01:13:49.915Z,70.54
2018-12-17T01:16:19.722Z,70.15
2018-12-17T01:18:49.377Z,69.12
2018-12-17T01:21:19.243Z,69.85
2018-12-17T01:23:49.391Z,69.65
2018-12-17T01:26:19.150Z,69.91
2018-12-17T01:28:49.500Z,69.17
2018-12-17T01:31:18.924Z,70.04
2018-12-17T01:33:48.287Z,69.41
2018-12-17T01:36:17.870Z,69.30
2018-12-17T01:38:47.187Z,69.55
2018-12-17T01:41:16.835Z,69.11
2018-12-17T01:43:46.282Z,69.81
2018-12-17T01:46:15.583Z,69.07
2018-12-17T01:48:45.279Z,70.09
2018-12-17T01:51:14.642Z,69.56
2018-12-17T01:53:44.330Z,68.90
2018-12-17T01:56:14.265Z,69.73
2018-12-17T01:58:43.853Z,69.44
2018-12-17T02:01:13.256Z,69.19
2018-12-17T02:03:42.639Z,68.28
2018-12-17T02:06:12.233Z,69.35
2018-12-17T02:08:42.951Z,68.91
2018-12-17T02:11:12.254Z,68.80
2018-12-17T02:13:41.707Z,69.45
2018-12-17T02:16:11.251Z,68.76
2018-12-17T02:18:40.684Z,68.58
2018-12-17T02:21:10.120Z,68.32
2018-12-17T02:23:39.957Z,69.05
2018-12-17T02:26:09.526Z,68.46
2018-12-17T02:28:39.579Z,68.74
2018-12-17T02:31:09.274Z,69.16
2018-12-17T02:33:38.928Z,68.81
2018-12-17T02:36:08.574Z,69.25
2018-12-17T02:38:37.864Z,69.69
2018-12-17T02:41:07.465Z,69.88
2018-12-17T02:43:38.155Z,69.69
2018-12-17T02:46:07.524Z,70.06
2018-12-17T02:48:36.816Z,70.11
2018-12-17T02:51:06.448Z,69.89
2018-12-17T02:53:36.047Z,70.74
2018-12-17T02:56:05.589Z,69.77
2018-12-17T02:58:35.415Z,69.51
2018-12-17T03:01:04.820Z,70.01
2018-12-17T03:03:34.487Z,69.58
2018-12-17T03:06:03.782Z,69.77
2018-12-17T03:08:33.568Z,69.39
2018-12-17T03:11:03.878Z,69.02
2018-12-17T03:13:33.633Z,69.67
2018-12-17T03:16:02.917Z,70.46
2018-12-17T03:18:32.637Z,70.11
2018-12-17T03:21:02.135Z,70.39
2018-12-17T03:23:31.892Z,70.23
2018-12-17T03:26:01.324Z,69.84
2018-12-17T03:28:30.772Z,69.30
2018-12-17T03:31:00.524Z,69.87
2018-12-17T03:33:30.090Z,70.55
2018-12-17T03:35:59.564Z,69.59
2018-12-17T03:38:29.097Z,69.11
2018-12-17T03:40:58.792Z,69.28
2018-12-17T03:43:28.122Z,68.82
2018-12-17T03:45:57.830Z,69.29
2018-12-17T03:48:27.065Z,69.27
2018-12-17T03:50:56.378Z,68.45
2018-12-17T03:53:25.997Z,69.03
2018-12-17T03:55:55.315Z,69.40
2018-12-17T03:58:24.886Z,68.51
2018-12-17T04:00:54.802Z,69.19
2018-12-17T04:03:24.127Z,69.64
2018-12-17T04:05:53.673Z,69.54
2018-12-17T04:08:23.275Z,69.67
2018-12-17T04:10:52.875Z,69.01
2018-12-17T04:13:22.415Z,69.22
2018-12-17T04:15:51.974Z,68.84
2018-12-17T04:18:21.793Z,69.49
2018-12-17T04:20:51.570Z,69.55
2018-12-17T04:23:20.995Z,69.57
2018-12-17T04:25:52.704Z,69.35
2018-12-17T04:28:22.394Z,69.15
2018-12-17T04:30:51.901Z,69.72
2018-12-17T04:33:21.734Z,69.77
2018-12-17T04:35:51.392Z,69.66
2018-12-17T04:38:20.842Z,69.80
2018-12-17T04:40:50.147Z,69.90
2018-12-17T04:43:19.612Z,69.45
2018-12-17T04:45:49.124Z,70.53
2018-12-17T04:48:18.663Z,69.85
2018-12-17T04:50:48.339Z,70.24
2018-12-17T04:53:18.393Z,69.45
2018-12-17T04:55:47.729Z,69.68
2018-12-17T04:58:17.200Z,69.62
2018-12-17T05:00:46.867Z,69.50
2018-12-17T05:03:16.464Z,69.43
2018-12-17T05:05:45.725Z,68.88
2018-12-17T05:08:15.125Z,69.68
2018-12-17T05:10:44.623Z,70.01
2018-12-17T05:13:14.211Z,69.48
2018-12-17T05:15:43.393Z,69.12
2018-12-17T05:18:12.767Z,69.94
2018-12-17T05:20:42.158Z,69.53
2018-12-17T05:23:11.609Z,70.44
2018-12-17T05:25:41.070Z,69.74
2018-12-17T05:28:10.728Z,70.30
2018-12-17T05:30:41.249Z,70.51
2018-12-17T05:33:11.028Z,70.68
2018-12-17T05:35:40.301Z,69.02
2018-12-17T05:38:09.908Z,69.21
2018-12-17T05:40:39.168Z,68.35
2018-12-17T05:43:08.439Z,69.51
2018-12-17T05:45:38.029Z,68.99
2018-12-17T05:48:07.408Z,68.12
2018-12-17T05:50:37.861Z,68.36
2018-12-17T05:53:07.372Z,69.03
2018-12-17T05:55:36.955Z,69.20
2018-12-17T05:58:06.673Z,69.53
2018-12-17T06:00:36.178Z,68.99
2018-12-17T06:03:05.883Z,68.34
2018-12-17T06:05:35.405Z,68.88
2018-12-17T06:08:05.013Z,68.02
2018-12-17T06:10:34.512Z,68.60
2018-12-17T06:13:04.000Z,68.05
2018-12-17T06:15:33.643Z,68.25
2018-12-17T06:18:03.376Z,67.83
2018-12-17T06:20:33.059Z,68.30
2018-12-17T06:23:02.665Z,67.22
2018-12-17T06:25:32.337Z,67.51
2018-12-17T06:28:01.891Z,67.81
2018-12-17T06:30:31.449Z,67.93
2018-12-17T06:33:00.925Z,68.32
2018-12-17T06:35:30.179Z,68.31
2018-12-17T06:37:59.704Z,67.85
2018-12-17T06:40:30.179Z,67.31
2018-12-17T06:42:59.553Z,67.32
2018-12-17T06:45:29.023Z,67.07
2018-12-17T06:47:58.853Z,66.92
2018-12-17T06:50:28.469Z,67.11
2018-12-17T06:52:58.117Z,66.63
2018-12-17T06:55:27.743Z,66.44
2018-12-17T06:57:57.606Z,66.31
2018-12-17T07:00:27.087Z,66.94
2018-12-17T07:02:56.590Z,67.25
2018-12-17T07:05:25.994Z,66.93
2018-12-17T07:07:55.500Z,66.55
2018-12-17T07:10:24.824Z,66.55
2018-12-17T07:12:54.350Z,66.73
2018-12-17T07:15:24.352Z,66.39
2018-12-17T07:17:54.097Z,65.81
2018-12-17T07:20:23.644Z,65.75
2018-12-17T07:22:53.171Z,67.02
2018-12-17T07:25:22.515Z,66.52
2018-12-17T07:27:51.988Z,66.29
2018-12-17T07:30:21.584Z,66.34
2018-12-17T07:32:50.948Z,66.96
2018-12-17T07:35:20.347Z,65.09
2018-12-17T07:37:50.307Z,65.58
2018-12-17T07:40:19.738Z,65.15
2018-12-17T07:42:49.173Z,65.00
2018-12-17T07:45:19.350Z,64.38
2018-12-17T07:47:49.500Z,64.12
2018-12-17T07:50:19.123Z,64.76
2018-12-17T07:52:48.559Z,64.67
2018-12-17T07:55:17.942Z,64.43
2018-12-17T07:57:47.510Z,65.23
2018-12-17T08:00:17.177Z,63.94
2018-12-17T08:02:46.759Z,63.09
2018-12-17T08:05:16.364Z,60.85
2018-12-17T08:07:45.803Z,61.77
2018-12-17T08:10:15.051Z,61.91
2018-12-17T08:12:44.508Z,61.76
2018-12-17T08:15:13.900Z,62.79
2018-12-17T08:17:43.502Z,63.13
2018-12-17T08:20:12.835Z,62.93
2018-12-17T08:22:43.260Z,63.04
2018-12-17T08:25:12.725Z,61.54
2018-12-17T08:27:42.795Z,59.81
2018-12-17T08:30:12.083Z,60.93
2018-12-17T08:32:41.723Z,59.15
2018-12-17T08:35:11.501Z,58.72
2018-12-17T08:37:41.151Z,56.65
2018-12-17T08:40:10.466Z,57.38
2018-12-17T08:42:39.952Z,55.84
2018-12-17T08:45:09.575Z,54.48
2018-12-17T08:47:39.090Z,54.18
2018-12-17T08:50:09.357Z,54.50
2018-12-17T08:52:38.575Z,53.94
2018-12-17T08:55:08.334Z,53.15
2018-12-17T08:57:38.188Z,52.03
2018-12-17T09:00:11.191Z,51.35
2018-12-17T09:02:41.192Z,51.53
2018-12-17T09:05:10.881Z,49.72
2018-12-17T09:07:40.357Z,49.96
2018-12-17T09:10:09.619Z,50.78
2018-12-17T09:12:38.857Z,50.00
2018-12-17T09:15:08.403Z,51.21
2018-12-17T09:17:38.827Z,53.04
2018-12-17T09:20:08.999Z,52.57
2018-12-17T09:22:38.437Z,51.83
2018-12-17T09:25:08.298Z,52.29
2018-12-17T09:27:37.572Z,53.12
2018-12-17T09:30:07.985Z,51.34
2018-12-17T09:32:37.575Z,51.38
2018-12-17T09:35:07.225Z,52.00
2018-12-17T09:37:36.787Z,51.06
2018-12-17T09:40:07.592Z,52.92
2018-12-17T09:42:37.154Z,52.90
2018-12-17T09:45:07.720Z,51.77
2018-12-17T09:47:37.035Z,52.26
2018-12-17T09:50:06.563Z,53.83
2018-12-17T09:52:37.198Z,51.87
2018-12-17T09:55:06.725Z,52.22
2018-12-17T09:57:36.294Z,52.57
2018-12-17T10:00:06.937Z,52.47
2018-12-17T10:02:36.244Z,52.97
2018-12-17T10:05:06.640Z,52.28
2018-12-17T10:07:35.858Z,51.24
2018-12-17T10:10:06.260Z,51.06
2018-12-17T10:12:35.861Z,51.33
2018-12-17T10:15:06.473Z,50.37
2018-12-17T10:17:36.100Z,50.69
2018-12-17T10:20:06.072Z,49.82
2018-12-17T10:22:35.816Z,50.31
2018-12-17T10:25:06.212Z,49.88
2018-12-17T10:27:36.826Z,51.13
2018-12-17T10:30:07.277Z,51.97
2018-12-17T10:32:36.814Z,53.55
2018-12-17T10:35:06.430Z,53.49
2018-12-17T10:37:35.864Z,53.32
2018-12-17T10:40:06.784Z,55.65
2018-12-17T10:42:36.179Z,55.47
2018-12-17T10:45:06.740Z,55.71
2018-12-17T10:47:36.261Z,55.39
2018-12-17T10:50:06.711Z,55.49
2018-12-17T10:52:36.339Z,56.72
2018-12-17T10:55:06.371Z,56.11
2018-12-17T10:57:36.095Z,56.44
2018-12-17T11:00:06.849Z,56.73
2018-12-17T11:02:36.513Z,56.85
2018-12-17T11:05:15.317Z,57.71
2018-12-17T11:07:44.825Z,57.64
2018-12-17T11:10:14.287Z,57.61
2018-12-17T11:12:43.951Z,57.83
2018-12-17T11:15:13.781Z,57.35
2018-12-17T11:17:44.702Z,58.09
2018-12-17T11:20:14.403Z,56.63
2018-12-17T11:22:44.127Z,57.23
2018-12-17T11:25:13.558Z,57.01
2018-12-17T11:27:42.821Z,57.04
2018-12-17T11:30:12.988Z,57.04
2018-12-17T11:32:44.400Z,57.65
2018-12-17T11:35:14.132Z,56.60
2018-12-17T11:37:43.373Z,59.57
2018-12-17T11:40:12.820Z,56.78
2018-12-17T11:42:42.605Z,56.39
2018-12-17T11:45:12.214Z,56.28
2018-12-17T11:47:41.730Z,57.04
2018-12-17T11:50:11.674Z,57.64
2018-12-17T11:52:40.924Z,57.14
2018-12-17T11:55:10.728Z,56.85
2018-12-17T11:58:15.064Z,55.30
2018-12-17T12:01:17.361Z,53.42
2018-12-17T12:03:47.027Z,53.54
2018-12-17T12:06:16.863Z,53.63
2018-12-17T12:08:46.301Z,54.84
2018-12-17T12:11:15.926Z,55.39
2018-12-17T12:13:45.508Z,54.55
2018-12-17T12:16:14.989Z,55.50
2018-12-17T12:18:44.730Z,55.47
2018-12-17T12:21:14.310Z,55.46
2018-12-17T12:23:44.066Z,56.38
2018-12-17T12:26:13.505Z,56.95
2018-12-17T12:28:42.752Z,56.86
2018-12-17T12:31:12.110Z,56.25
2018-12-17T12:33:41.775Z,56.13
2018-12-17T12:36:11.003Z,57.08
2018-12-17T12:38:40.279Z,57.16
2018-12-17T12:41:10.096Z,57.20
2018-12-17T12:43:39.455Z,57.30
2018-12-17T12:46:09.157Z,57.67
2018-12-17T12:48:38.877Z,56.32
2018-12-17T12:51:08.170Z,56.76
2018-12-17T12:53:37.677Z,56.22
2018-12-17T12:56:07.217Z,56.92
2018-12-17T12:58:36.825Z,54.85
2018-12-17T13:01:07.784Z,55.29
2018-12-17T13:03:37.886Z,55.56
2018-12-17T13:06:07.363Z,56.70
2018-12-17T13:08:36.628Z,57.04
2018-12-17T13:11:06.126Z,56.52
2018-12-17T13:13:35.543Z,56.53
2018-12-17T13:16:05.091Z,57.17
2018-12-17T13:18:34.927Z,56.78
2018-12-17T13:21:04.394Z,56.12
2018-12-17T13:23:33.907Z,56.17
2018-12-17T13:26:03.707Z,56.42
2018-12-17T13:28:33.377Z,55.53
2018-12-17T13:31:02.823Z,56.31
2018-12-17T13:33:32.657Z,56.92
2018-12-17T13:36:01.923Z,56.73
2018-12-17T13:38:31.397Z,56.52
2018-12-17T13:41:01.325Z,56.28
2018-12-17T13:43:30.861Z,56.09
2018-12-17T13:46:00.692Z,57.85
2018-12-17T13:48:30.215Z,57.42
2018-12-17T13:51:03.673Z,57.05
2018-12-17T13:53:33.447Z,57.57
2018-12-17T13:56:03.314Z,58.06
2018-12-17T13:58:33.034Z,58.53
2018-12-17T14:01:02.420Z,58.91
2018-12-17T14:03:32.005Z,59.14
2018-12-17T14:06:01.418Z,57.66
2018-12-17T14:08:30.714Z,58.50
2018-12-17T14:11:00.882Z,58.36
2018-12-17T14:13:30.441Z,58.66
2018-12-17T14:16:05.049Z,58.85
2018-12-17T14:18:39.780Z,58.70
2018-12-17T14:21:14.529Z,59.72
2018-12-17T14:23:44.091Z,60.01
2018-12-17T14:26:13.509Z,60.50
2018-12-17T14:28:42.993Z,60.55
2018-12-17T14:31:12.497Z,60.80
2018-12-17T14:33:42.235Z,61.14
2018-12-17T14:36:11.677Z,61.69
2018-12-17T14:38:41.171Z,62.64
2018-12-17T14:41:10.716Z,62.64
2018-12-17T14:43:40.153Z,63.73
2018-12-17T14:46:09.510Z,63.84
2018-12-17T14:48:39.023Z,64.14
2018-12-17T14:51:08.609Z,64.93
2018-12-17T14:53:39.568Z,64.08
2018-12-17T14:56:09.050Z,64.82
2018-12-17T14:58:44.437Z,65.47
2018-12-17T15:01:11.194Z,66.38
2018-12-17T15:03:40.532Z,65.70
2018-12-17T15:06:09.982Z,65.54
2018-12-17T15:08:39.505Z,65.65
2018-12-17T15:11:08.832Z,66.16
2018-12-17T15:13:38.613Z,66.12
2018-12-17T15:16:07.851Z,64.92
2018-12-17T15:18:37.343Z,64.92
2018-12-17T15:21:07.472Z,65.89
2018-12-17T15:23:37.030Z,65.46
2018-12-17T15:26:06.547Z,65.19
2018-12-17T15:28:36.509Z,64.81
2018-12-17T15:31:06.156Z,65.21
2018-12-17T15:33:35.509Z,65.05
2018-12-17T15:36:04.923Z,64.19
2018-12-17T15:38:35.815Z,64.24
2018-12-17T15:41:05.187Z,64.47
2018-12-17T15:43:34.724Z,64.27
2018-12-17T15:46:04.195Z,64.42
2018-12-17T15:48:33.534Z,64.57
2018-12-17T15:51:03.086Z,64.17
2018-12-17T15:53:32.570Z,63.83
2018-12-17T15:56:01.963Z,64.49
2018-12-17T15:58:32.830Z,64.37
2018-12-17T16:01:02.389Z,64.74
2018-12-17T16:03:31.666Z,64.43
2018-12-17T16:06:01.299Z,64.78
2018-12-17T16:08:31.661Z,64.71
2018-12-17T16:11:01.226Z,64.84
2018-12-17T16:13:30.751Z,64.75
2018-12-17T16:16:00.288Z,64.81
2018-12-17T16:18:29.672Z,65.28
2018-12-17T16:20:58.977Z,65.11
2018-12-17T16:23:28.314Z,65.31
2018-12-17T16:25:57.683Z,64.76
2018-12-17T16:28:27.159Z,64.14
2018-12-17T16:30:56.894Z,64.82
2018-12-17T16:33:29.925Z,65.14
2018-12-17T16:35:58.068Z,65.50
2018-12-17T16:38:27.362Z,65.53
2018-12-17T16:40:56.707Z,65.67
2018-12-17T16:43:26.352Z,66.76
2018-12-17T16:45:55.769Z,66.40
2018-12-17T16:48:25.217Z,66.98
2018-12-17T16:50:54.998Z,67.22
2018-12-17T16:53:24.475Z,68.36
2018-12-17T16:55:53.770Z,70.17
2018-12-17T16:58:23.473Z,70.25
2018-12-17T17:00:52.860Z,69.79
2018-12-17T17:03:22.528Z,69.44
2018-12-17T17:05:53.379Z,69.55
2018-12-17T17:08:22.957Z,69.41
2018-12-17T17:10:52.792Z,69.98
2018-12-17T17:13:22.080Z,71.14
2018-12-17T17:15:51.662Z,71.98
2018-12-17T17:18:21.046Z,73.13
2018-12-17T17:20:50.779Z,72.95
2018-12-17T17:23:20.157Z,72.75
2018-12-17T17:25:50.251Z,74.25
2018-12-17T17:28:19.667Z,73.41
2018-12-17T17:30:49.439Z,72.28
2018-12-17T17:33:18.904Z,71.56
2018-12-17T17:35:48.407Z,70.68
2018-12-17T17:38:18.179Z,70.16
2018-12-17T17:40:47.709Z,69.18
2018-12-17T17:43:17.120Z,68.03
2018-12-17T17:45:46.836Z,67.88
2018-12-17T17:48:16.235Z,68.69
2018-12-17T17:50:45.882Z,67.53
2018-12-17T17:53:15.708Z,67.53
2018-12-17T17:55:45.164Z,67.75
2018-12-17T17:58:14.750Z,66.71
2018-12-17T18:00:44.658Z,67.10
2018-12-17T18:03:14.221Z,67.21
2018-12-17T18:05:43.875Z,65.94
2018-12-17T18:08:13.563Z,66.07
2018-12-17T18:10:42.837Z,65.50
2018-12-17T18:13:12.904Z,65.40
2018-12-17T18:15:42.481Z,64.36
2018-12-17T18:18:11.870Z,65.09
2018-12-17T18:20:41.449Z,64.92
2018-12-17T18:23:10.957Z,65.13
2018-12-17T18:25:40.454Z,65.00
2018-12-17T18:28:10.013Z,64.57
2018-12-17T18:30:39.501Z,64.72
2018-12-17T18:33:08.921Z,65.14
2018-12-17T18:35:38.259Z,65.58
2018-12-17T18:38:07.590Z,65.70
2018-12-17T18:40:36.880Z,66.48
2018-12-17T18:43:06.435Z,65.58
2018-12-17T18:45:35.771Z,66.07
2018-12-17T18:48:05.187Z,66.19
2018-12-17T18:50:34.915Z,66.39
2018-12-17T18:53:04.450Z,66.26
2018-12-17T18:55:34.264Z,66.10
2018-12-17T18:58:04.228Z,65.83
2018-12-17T19:00:33.797Z,66.20
2018-12-17T19:03:03.076Z,66.69
2018-12-17T19:05:32.312Z,66.90
2018-12-17T19:08:01.522Z,66.90
2018-12-17T19:11:01.170Z,67.70
2018-12-17T19:13:30.764Z,67.91
2018-12-17T19:16:00.029Z,68.51
2018-12-17T19:18:29.369Z,68.20
2018-12-17T19:20:58.731Z,68.25
2018-12-17T19:23:28.282Z,68.66
2018-12-17T19:25:57.622Z,68.30
2018-12-17T19:28:26.931Z,67.86
2018-12-17T19:30:56.437Z,68.72
2018-12-17T19:33:25.958Z,67.88
2018-12-17T19:35:55.498Z,68.74
2018-12-17T19:38:25.113Z,68.96
2018-12-17T19:40:54.460Z,68.05
2018-12-17T19:43:25.100Z,69.06
2018-12-17T19:45:54.463Z,68.67
2018-12-17T19:48:24.111Z,68.88
2018-12-17T19:50:53.911Z,68.09
2018-12-17T19:53:23.354Z,68.97
2018-12-17T19:55:54.068Z,68.94
2018-12-17T19:58:23.287Z,69.41
2018-12-17T20:00:52.704Z,70.20
2018-12-17T20:03:22.674Z,71.00
2018-12-17T20:05:52.533Z,70.60
2018-12-17T20:08:22.029Z,71.01
2018-12-17T20:10:51.712Z,71.44
2018-12-17T20:13:22.318Z,71.47
2018-12-17T20:15:52.132Z,71.16
2018-12-17T20:18:21.941Z,70.49
2018-12-17T20:20:51.549Z,70.71
2018-12-17T20:23:21.395Z,71.83
2018-12-17T20:25:50.642Z,72.03
2018-12-17T20:28:20.083Z,72.21
2018-12-17T20:30:49.685Z,72.63
2018-12-17T20:33:18.902Z,73.58
2018-12-17T20:35:48.622Z,73.25
2018-12-17T20:38:18.313Z,73.74
2018-12-17T20:40:47.827Z,74.27
2018-12-17T20:43:17.315Z,74.28
2018-12-17T20:45:46.768Z,74.37
2018-12-17T20:48:16.488Z,74.82
2018-12-17T20:50:45.731Z,74.65
2018-12-17T20:53:15.029Z,74.90
2018-12-17T20:55:44.619Z,75.14
2018-12-17T20:58:13.979Z,74.87
2018-12-17T21:00:43.243Z,75.31
2018-12-17T21:03:12.699Z,75.24
2018-12-17T21:05:42.171Z,76.91
2018-12-17T21:08:11.719Z,76.07
2018-12-17T21:10:41.350Z,75.96
2018-12-17T21:13:10.731Z,77.17
2018-12-17T21:15:40.353Z,76.53
2018-12-17T21:18:09.756Z,75.75
2018-12-17T21:20:39.473Z,77.08
2018-12-17T21:23:09.281Z,76.34
2018-12-17T21:25:39.000Z,76.03
2018-12-17T21:28:08.636Z,76.56
2018-12-17T21:30:38.460Z,76.59
2018-12-17T21:33:07.937Z,76.65
2018-12-17T21:35:37.218Z,77.04
2018-12-17T21:38:06.805Z,76.84
2018-12-17T21:40:36.194Z,77.23
2018-12-17T21:43:06.112Z,77.33
2018-12-17T21:45:35.486Z,76.86
2018-12-17T21:48:04.931Z,77.52
2018-12-17T21:50:34.744Z,78.44
2018-12-17T21:53:04.091Z,78.45
2018-12-17T21:55:35.184Z,78.04
2018-12-17T21:58:04.763Z,77.23
2018-12-17T22:00:34.014Z,77.07
2018-12-17T22:03:03.868Z,77.39
2018-12-17T22:05:33.244Z,78.33
2018-12-17T22:08:02.913Z,77.53
2018-12-17T22:10:35.663Z,77.07
2018-12-17T22:13:05.558Z,78.69
2018-12-17T22:15:35.208Z,78.57
2018-12-17T22:18:04.720Z,78.11
2018-12-17T22:20:34.058Z,77.53
2018-12-17T22:23:03.739Z,78.30
2018-12-17T22:25:33.252Z,78.91
2018-12-17T22:28:03.783Z,78.92
2018-12-17T22:30:33.659Z,78.85
2018-12-17T22:33:03.122Z,79.33
2018-12-17T22:35:32.624Z,78.54
2018-12-17T22:38:02.092Z,78.91
2018-12-17T22:40:31.633Z,80.13
2018-12-17T22:43:01.197Z,80.03
2018-12-17T22:45:30.623Z,79.16
2018-12-17T22:48:00.038Z,79.70
2018-12-17T22:50:29.556Z,80.19
2018-12-17T22:52:59.320Z,79.79
2018-12-17T22:55:28.597Z,79.61
2018-12-17T22:57:57.941Z,79.04
2018-12-17T23:00:27.739Z,79.74
2018-12-17T23:02:59.469Z,78.83
2018-12-17T23:05:29.010Z,80.53
2018-12-17T23:07:58.226Z,81.11
2018-12-17T23:10:45.327Z,80.68
2018-12-17T23:13:25.768Z,81.03
2018-12-17T23:16:07.291Z,80.54
2018-12-17T23:18:35.825Z,81.13
2018-12-17T23:21:07.342Z,80.65
2018-12-17T23:23:38.747Z,80.61
2018-12-17T23:26:10.279Z,81.03
2018-12-17T23:28:40.100Z,80.79
2018-12-17T23:31:10.009Z,80.53
2018-12-17T23:33:39.374Z,81.54
2018-12-17T23:36:09.447Z,81.02
2018-12-17T23:38:38.799Z,81.78
2018-12-17T23:41:08.343Z,83.05
2018-12-17T23:43:37.826Z,83.08
2018-12-17T23:46:07.356Z,82.48
2018-12-17T23:48:36.855Z,82.82
2018-12-17T23:51:06.109Z,82.98
2018-12-17T23:53:35.897Z,82.11
2018-12-17T23:56:05.554Z,81.63
2018-12-17T23:58:35.092Z,80.74
